createdAt,value
2024-01-21T00:01:34.372Z,101705.98
2024-01-21T00:04:02.690Z,101711.07
2024-01-21T00:06:30.806Z,101712.94
2024-01-21T00:08:58.952Z,101714.87
2024-01-21T00:11:26.879Z,101708.89
2024-01-21T00:13:55.122Z,101706.92
2024-01-21T00:16:23.097Z,101706.95
2024-01-21T00:18:51.091Z,101707.31
2024-01-21T00:21:19.225Z,101705.05
2024-01-21T00:23:47.653Z,101708.87
2024-01-21T00:26:15.599Z,101710.95
2024-01-21T00:28:43.880Z,101706.86
2024-01-21T00:31:12.335Z,101707.34
2024-01-21T00:33:41.189Z,101709.88
2024-01-21T00:36:12.982Z,101710.41
2024-01-21T00:38:42.867Z,101716.08
2024-01-21T00:41:15.759Z,101719.36
2024-01-21T00:43:43.864Z,101720.46
2024-01-21T00:46:12.007Z,101722.77
2024-01-21T00:48:41.070Z,101725.92
2024-01-21T00:51:09.255Z,101730.41
2024-01-21T00:53:37.309Z,101725.54
2024-01-21T00:56:05.903Z,101726.16
2024-01-21T00:58:33.888Z,101729.06
2024-01-21T01:01:01.892Z,101727.13
2024-01-21T01:03:30.090Z,101727.47
2024-01-21T01:06:00.361Z,101731.41
2024-01-21T01:08:28.267Z,101731.58
2024-01-21T01:10:56.267Z,101732.17
2024-01-21T01:13:24.290Z,101733.81
2024-01-21T01:15:52.373Z,101733.95
2024-01-21T01:18:20.681Z,101737.51
2024-01-21T01:20:49.040Z,101732.88
2024-01-21T01:23:17.169Z,101733.65
2024-01-21T01:25:45.175Z,101737.09
2024-01-21T01:28:13.784Z,101738.50
2024-01-21T01:30:41.723Z,101742.02
2024-01-21T01:33:09.794Z,101739.73
2024-01-21T01:35:37.817Z,101736.09
2024-01-21T01:38:06.890Z,101736.62
2024-01-21T01:40:35.014Z,101730.63
2024-01-21T01:43:03.955Z,101727.17
2024-01-21T01:45:32.107Z,101721.11
2024-01-21T01:48:00.772Z,101720.78
2024-01-21T01:50:28.910Z,101717.58
2024-01-21T01:52:58.057Z,101722.17
2024-01-21T01:55:26.639Z,101724.48
2024-01-21T01:57:54.889Z,101721.84
2024-01-21T02:00:22.983Z,101722.22
2024-01-21T02:02:52.040Z,101716.04
2024-01-21T02:05:30.198Z,101704.36
2024-01-21T02:07:59.819Z,101701.65
2024-01-21T02:10:32.072Z,101705.59
2024-01-21T02:13:00.237Z,101702.92
2024-01-21T02:15:28.199Z,101699.29
2024-01-21T02:17:56.341Z,101700.38
2024-01-21T02:20:24.268Z,101699.73
2024-01-21T02:22:57.194Z,101705.59
2024-01-21T02:25:25.157Z,101712.77
2024-01-21T02:27:53.105Z,101711.45
2024-01-21T02:30:21.026Z,101713.73
2024-01-21T02:32:49.023Z,101716.67
2024-01-21T02:35:17.166Z,101720.60
2024-01-21T02:37:45.075Z,101727.59
2024-01-21T02:40:13.173Z,101733.08
2024-01-21T02:42:41.205Z,101739.02
2024-01-21T02:45:09.490Z,101744.44
2024-01-21T02:47:37.656Z,101748.38
2024-01-21T02:50:06.597Z,101752.25
2024-01-21T02:52:34.533Z,101759.35
2024-01-21T02:55:02.504Z,101763.11
2024-01-21T02:57:30.398Z,101764.23
2024-01-21T02:59:58.357Z,101764.95
2024-01-21T03:02:26.278Z,101761.95
2024-01-21T03:04:54.234Z,101757.36
2024-01-21T03:07:22.226Z,101760.17
2024-01-21T03:09:50.217Z,101771.02
2024-01-21T03:12:18.363Z,101778.02
2024-01-21T03:14:46.315Z,101785.70
2024-01-21T03:17:14.328Z,101788.10
2024-01-21T03:19:42.441Z,101795.60
2024-01-21T03:22:10.410Z,101801.04
2024-01-21T03:24:38.840Z,101799.38
2024-01-21T03:27:06.703Z,101798.59
2024-01-21T03:29:35.575Z,101802.36
2024-01-21T03:32:03.759Z,101802.50
2024-01-21T03:34:31.775Z,101805.77
2024-01-21T03:36:59.731Z,101808.83
2024-01-21T03:39:27.585Z,101811.35
2024-01-21T03:41:55.654Z,101812.86
2024-01-21T03:44:23.645Z,101819.27
2024-01-21T03:46:51.554Z,101819.00
2024-01-21T03:49:19.648Z,101812.64
2024-01-21T03:51:47.731Z,101810.67
2024-01-21T03:54:15.982Z,101807.71
2024-01-21T03:56:45.156Z,101806.06
2024-01-21T03:59:13.144Z,101808.55
2024-01-21T04:01:45.044Z,101810.33
2024-01-21T04:04:14.115Z,101812.45
2024-01-21T04:06:44.136Z,101813.45
2024-01-21T04:09:13.835Z,101814.40
2024-01-21T04:11:43.957Z,101816.40
2024-01-21T04:14:12.042Z,101812.80
2024-01-21T04:16:40.938Z,101814.38
2024-01-21T04:19:10.824Z,101813.28
2024-01-21T04:21:39.007Z,101818.70
2024-01-21T04:24:07.936Z,101820.55
2024-01-21T04:26:36.191Z,101829.02
2024-01-21T04:29:04.200Z,101832.41
2024-01-21T04:31:32.119Z,101833.87
2024-01-21T04:34:00.076Z,101833.61
2024-01-21T04:36:28.202Z,101836.85
2024-01-21T04:38:56.152Z,101834.33
2024-01-21T04:41:23.995Z,101838.66
2024-01-21T04:43:52.004Z,101842.09
2024-01-21T04:46:20.002Z,101844.45
2024-01-21T04:48:48.106Z,101843.63
2024-01-21T04:51:16.320Z,101845.67
2024-01-21T04:53:45.754Z,101847.10
2024-01-21T04:56:18.235Z,101847.72
2024-01-21T04:58:46.830Z,101846.61
2024-01-21T05:01:14.909Z,101847.93
2024-01-21T05:03:43.421Z,101845.57
2024-01-21T05:06:11.747Z,101845.61
2024-01-21T05:08:40.398Z,101843.70
2024-01-21T05:11:08.541Z,101849.44
2024-01-21T05:13:44.324Z,101854.13
2024-01-21T05:16:19.846Z,101856.88
2024-01-21T05:18:47.837Z,101861.04
2024-01-21T05:21:21.879Z,101858.35
2024-01-21T05:23:53.697Z,101862.80
2024-01-21T05:26:21.965Z,101869.28
2024-01-21T05:28:50.128Z,101879.33
2024-01-21T05:31:18.123Z,101877.52
2024-01-21T05:33:48.401Z,101881.30
2024-01-21T05:36:18.145Z,101881.89
2024-01-21T05:38:46.969Z,101882.42
2024-01-21T05:41:18.145Z,101883.05
2024-01-21T05:43:46.318Z,101883.40
2024-01-21T05:46:14.357Z,101886.08
2024-01-21T05:48:42.256Z,101884.11
2024-01-21T05:51:10.267Z,101890.14
2024-01-21T05:53:40.411Z,101899.63
2024-01-21T05:56:08.594Z,101911.85
2024-01-21T05:58:36.960Z,101913.51
2024-01-21T06:01:05.349Z,101911.35
2024-01-21T06:03:33.770Z,101912.34
2024-01-21T06:06:01.961Z,101917.36
2024-01-21T06:08:30.198Z,101916.87
2024-01-21T06:10:58.136Z,101918.74
2024-01-21T06:13:26.002Z,101919.52
2024-01-21T06:15:54.181Z,101920.11
2024-01-21T06:18:22.469Z,101917.08
2024-01-21T06:20:50.549Z,101917.68
2024-01-21T06:23:18.900Z,101916.95
2024-01-21T06:25:46.803Z,101914.27
2024-01-21T06:28:14.727Z,101908.61
2024-01-21T06:30:42.794Z,101909.27
2024-01-21T06:33:10.710Z,101911.45
2024-01-21T06:35:38.699Z,101911.02
2024-01-21T06:38:06.902Z,101916.02
2024-01-21T06:40:35.208Z,101924.44
2024-01-21T06:43:03.732Z,101928.27
2024-01-21T06:45:31.659Z,101932.02
2024-01-21T06:47:59.556Z,101938.45
2024-01-21T06:50:28.840Z,101943.02
2024-01-21T06:52:57.155Z,101944.63
2024-01-21T06:55:26.240Z,101947.18
2024-01-21T06:57:54.486Z,101948.56
2024-01-21T07:00:22.839Z,101948.14
2024-01-21T07:02:51.168Z,101947.94
2024-01-21T07:05:20.916Z,101951.27
2024-01-21T07:07:50.390Z,101954.18
2024-01-21T07:10:19.025Z,101955.63
2024-01-21T07:12:47.730Z,101956.68
2024-01-21T07:15:16.261Z,101960.10
2024-01-21T07:17:44.629Z,101957.35
2024-01-21T07:20:13.587Z,101961.94
2024-01-21T07:22:41.625Z,101958.42
2024-01-21T07:25:10.116Z,101955.02
2024-01-21T07:27:38.376Z,101957.53
2024-01-21T07:30:07.463Z,101958.47
2024-01-21T07:32:35.562Z,101970.74
2024-01-21T07:35:04.828Z,101980.29
2024-01-21T07:37:32.981Z,101979.64
2024-01-21T07:40:00.957Z,101976.59
2024-01-21T07:42:29.058Z,101975.89
2024-01-21T07:44:57.263Z,101981.35
2024-01-21T07:47:26.285Z,101983.74
2024-01-21T07:49:54.227Z,101988.31
2024-01-21T07:52:22.673Z,101985.67
2024-01-21T07:54:50.759Z,101990.42
2024-01-21T07:57:18.807Z,101991.55
2024-01-21T07:59:46.818Z,101993.00
2024-01-21T08:02:14.917Z,101991.09
2024-01-21T08:04:43.187Z,101998.14
2024-01-21T08:07:11.364Z,102005.48
2024-01-21T08:09:39.437Z,102013.85
2024-01-21T08:12:07.440Z,102022.99
2024-01-21T08:14:35.336Z,102026.84
2024-01-21T08:17:04.183Z,102031.15
2024-01-21T08:19:38.194Z,102033.54
2024-01-21T08:22:10.216Z,102037.63
2024-01-21T08:24:39.792Z,102043.97
2024-01-21T08:27:08.268Z,102040.41
2024-01-21T08:29:37.999Z,102038.95
2024-01-21T08:32:08.925Z,102040.91
2024-01-21T08:34:37.579Z,102039.82
2024-01-21T08:37:06.509Z,102034.17
2024-01-21T08:39:34.645Z,102032.35
2024-01-21T08:42:02.723Z,102031.98
2024-01-21T08:44:30.668Z,102028.84
2024-01-21T08:47:00.403Z,102034.77
2024-01-21T08:49:28.717Z,102035.50
2024-01-21T08:51:56.941Z,102038.85
2024-01-21T08:54:25.051Z,102039.28
2024-01-21T08:56:53.466Z,102043.15
2024-01-21T08:59:22.528Z,102043.36
2024-01-21T09:01:51.060Z,102039.52
2024-01-21T09:04:19.382Z,102037.55
2024-01-21T09:06:47.602Z,102033.00
2024-01-21T09:09:15.869Z,102034.27
2024-01-21T09:11:44.055Z,102032.99
2024-01-21T09:14:12.353Z,102031.54
2024-01-21T09:16:40.467Z,102028.17
2024-01-21T09:19:08.735Z,102027.77
2024-01-21T09:21:37.472Z,102029.58
2024-01-21T09:24:07.273Z,102031.75
2024-01-21T09:26:35.990Z,102033.61
2024-01-21T09:29:07.236Z,102032.65
2024-01-21T09:31:36.550Z,102030.82
2024-01-21T09:34:05.713Z,102021.12
2024-01-21T09:36:36.875Z,102021.89
2024-01-21T09:39:06.136Z,102021.59
2024-01-21T09:41:39.557Z,102020.48
2024-01-21T09:44:08.057Z,102017.85
2024-01-21T09:46:36.165Z,102020.87
2024-01-21T09:49:08.259Z,102022.34
2024-01-21T09:51:38.598Z,102020.69
2024-01-21T09:54:08.081Z,102020.94
2024-01-21T09:56:36.043Z,102026.20
2024-01-21T09:59:07.023Z,102024.39
2024-01-21T10:01:37.574Z,102017.09
2024-01-21T10:04:05.875Z,102016.64
2024-01-21T10:06:36.254Z,102022.71
2024-01-21T10:09:17.906Z,102021.91
2024-01-21T10:11:54.107Z,102019.21
2024-01-21T10:14:22.084Z,102018.02
2024-01-21T10:16:50.927Z,102015.14
2024-01-21T10:19:27.447Z,102017.39
2024-01-21T10:22:22.968Z,102016.55
2024-01-21T10:24:51.427Z,102016.98
2024-01-21T10:27:20.140Z,102021.01
2024-01-21T10:29:48.610Z,102021.39
2024-01-21T10:32:19.057Z,102019.70
2024-01-21T10:34:52.077Z,102019.37
2024-01-21T10:37:20.766Z,102022.52
2024-01-21T10:39:50.286Z,102020.99
2024-01-21T10:42:19.010Z,102025.30
2024-01-21T10:44:48.018Z,102025.86
2024-01-21T10:47:17.774Z,102028.65
2024-01-21T10:49:50.137Z,102023.85
2024-01-21T10:52:18.580Z,102025.27
2024-01-21T10:54:48.348Z,102028.08
2024-01-21T10:57:17.175Z,102031.21
2024-01-21T10:59:50.121Z,102034.35
2024-01-21T11:02:20.673Z,102031.60
2024-01-21T11:04:49.177Z,102031.80
2024-01-21T11:07:18.877Z,102031.48
2024-01-21T11:09:48.629Z,102025.81
2024-01-21T11:12:17.888Z,102021.69
2024-01-21T11:14:46.248Z,102024.46
2024-01-21T11:17:22.996Z,102024.85
2024-01-21T11:19:59.305Z,102025.34
2024-01-21T11:22:27.735Z,102026.01
2024-01-21T11:24:58.017Z,102029.78
2024-01-21T11:27:29.050Z,102028.22
2024-01-21T11:30:03.762Z,102029.25
2024-01-21T11:32:32.902Z,102026.70
2024-01-21T11:35:20.975Z,102026.39
2024-01-21T11:37:54.207Z,102025.38
2024-01-21T11:40:22.882Z,102025.21
2024-01-21T11:42:52.513Z,102022.48
2024-01-21T11:45:21.052Z,102024.89
2024-01-21T11:47:49.216Z,102023.17
2024-01-21T11:50:20.552Z,102021.79
2024-01-21T11:52:49.848Z,102025.09
2024-01-21T11:55:22.364Z,102022.36
2024-01-21T11:57:50.723Z,102024.43
2024-01-21T12:00:22.298Z,102023.58
2024-01-21T12:02:52.117Z,102017.72
2024-01-21T12:05:20.610Z,102015.84
2024-01-21T12:07:49.043Z,102016.35
2024-01-21T12:10:17.510Z,102011.86
2024-01-21T12:12:46.823Z,102007.39
2024-01-21T12:15:15.044Z,102008.59
2024-01-21T12:17:54.280Z,102007.06
2024-01-21T12:20:22.645Z,102009.67
2024-01-21T12:22:51.440Z,102016.08
2024-01-21T12:25:19.876Z,102017.96
2024-01-21T12:27:48.717Z,102016.08
2024-01-21T12:30:16.915Z,102013.86
2024-01-21T12:32:53.183Z,102014.05
2024-01-21T12:35:26.718Z,102013.36
2024-01-21T12:37:55.698Z,102014.21
2024-01-21T12:40:26.826Z,102015.77
2024-01-21T12:42:55.598Z,102015.24
2024-01-21T12:45:23.663Z,102013.89
2024-01-21T12:47:53.275Z,102012.00
2024-01-21T12:50:23.197Z,102012.36
2024-01-21T12:52:51.538Z,102008.58
2024-01-21T12:55:19.869Z,102008.74
2024-01-21T12:57:47.910Z,102009.08
2024-01-21T13:00:16.786Z,102006.30
2024-01-21T13:02:46.547Z,102003.38
2024-01-21T13:05:16.507Z,102003.55
2024-01-21T13:07:45.058Z,102007.71
2024-01-21T13:10:13.447Z,102011.84
2024-01-21T13:12:41.849Z,102008.58
2024-01-21T13:15:10.225Z,102011.67
2024-01-21T13:17:42.558Z,102012.19
2024-01-21T13:20:11.531Z,102012.36
2024-01-21T13:22:39.840Z,102012.15
2024-01-21T13:25:14.380Z,102009.55
2024-01-21T13:27:46.705Z,102011.63
2024-01-21T13:30:33.904Z,102008.86
2024-01-21T13:33:02.227Z,102010.06
2024-01-21T13:35:31.282Z,102015.05
2024-01-21T13:38:00.943Z,102015.75
2024-01-21T13:40:30.608Z,102017.27
2024-01-21T13:42:59.018Z,102012.46
2024-01-21T13:45:27.676Z,102010.75
2024-01-21T13:47:59.759Z,102015.58
2024-01-21T13:50:28.336Z,102018.84
2024-01-21T13:52:57.318Z,102021.26
2024-01-21T13:55:25.518Z,102018.83
2024-01-21T13:57:56.265Z,102021.41
2024-01-21T14:00:25.854Z,102025.73
2024-01-21T14:02:58.157Z,102026.77
2024-01-21T14:05:28.032Z,102022.98
2024-01-21T14:07:56.601Z,102018.16
2024-01-21T14:10:25.253Z,102018.82
2024-01-21T14:12:53.655Z,102016.56
2024-01-21T14:15:22.085Z,102017.40
2024-01-21T14:17:52.086Z,102013.25
2024-01-21T14:20:20.137Z,102013.73
2024-01-21T14:22:48.144Z,102016.46
2024-01-21T14:25:33.298Z,102016.46
2024-01-21T14:28:01.343Z,102017.98
2024-01-21T14:30:35.273Z,102016.23
2024-01-21T14:33:05.020Z,102018.61
2024-01-21T14:35:33.656Z,102021.35
2024-01-21T14:38:01.845Z,102020.48
2024-01-21T14:40:32.751Z,102024.77
2024-01-21T14:43:00.804Z,102031.30
2024-01-21T14:45:29.065Z,102034.70
2024-01-21T14:47:57.192Z,102037.44
2024-01-21T14:50:25.305Z,102037.57
2024-01-21T14:52:56.787Z,102041.83
2024-01-21T14:55:25.966Z,102043.48
2024-01-21T14:57:58.353Z,102043.92
2024-01-21T15:00:26.632Z,102043.39
2024-01-21T15:02:55.186Z,102039.90
2024-01-21T15:05:23.137Z,102040.55
2024-01-21T15:07:51.236Z,102043.27
2024-01-21T15:10:20.668Z,102046.67
2024-01-21T15:12:48.843Z,102050.43
2024-01-21T15:15:36.727Z,102046.79
2024-01-21T15:18:05.087Z,102041.09
2024-01-21T15:20:33.144Z,102042.96
2024-01-21T15:23:01.236Z,102045.85
2024-01-21T15:25:30.323Z,102048.02
2024-01-21T15:27:59.257Z,102045.59
2024-01-21T15:30:27.972Z,102047.96
2024-01-21T15:32:56.755Z,102052.73
2024-01-21T15:35:24.737Z,102051.45
2024-01-21T15:37:55.573Z,102055.17
2024-01-21T15:40:23.636Z,102057.06
2024-01-21T15:42:51.870Z,102058.05
2024-01-21T15:45:21.992Z,102062.11
2024-01-21T15:47:50.263Z,102064.67
2024-01-21T15:50:18.446Z,102069.23
2024-01-21T15:52:46.596Z,102072.11
2024-01-21T15:55:14.934Z,102077.55
2024-01-21T15:57:43.125Z,102076.08
2024-01-21T16:00:11.329Z,102074.52
2024-01-21T16:02:39.397Z,102078.80
2024-01-21T16:05:07.717Z,102081.52
2024-01-21T16:07:35.708Z,102077.56
2024-01-21T16:10:04.230Z,102082.31
2024-01-21T16:12:32.256Z,102088.31
2024-01-21T16:15:00.576Z,102089.67
2024-01-21T16:17:28.805Z,102091.01
2024-01-21T16:19:57.168Z,102096.50
2024-01-21T16:22:25.153Z,102097.02
2024-01-21T16:24:53.419Z,102096.48
2024-01-21T16:27:29.696Z,102098.85
2024-01-21T16:30:01.340Z,102098.98
2024-01-21T16:32:29.796Z,102096.91
2024-01-21T16:35:01.280Z,102096.39
2024-01-21T16:37:30.836Z,102095.52
2024-01-21T16:39:59.719Z,102093.80
2024-01-21T16:42:28.292Z,102096.71
2024-01-21T16:44:58.058Z,102099.42
2024-01-21T16:47:26.427Z,102101.60
2024-01-21T16:49:57.913Z,102106.91
2024-01-21T16:52:33.938Z,102108.09
2024-01-21T16:55:02.631Z,102107.90
2024-01-21T16:57:31.764Z,102104.80
2024-01-21T17:00:07.756Z,102106.67
2024-01-21T17:02:36.354Z,102108.20
2024-01-21T17:05:04.685Z,102109.02
2024-01-21T17:07:32.685Z,102112.63
2024-01-21T17:10:04.057Z,102118.46
2024-01-21T17:12:37.825Z,102123.06
2024-01-21T17:15:06.584Z,102123.71
2024-01-21T17:17:34.772Z,102122.00
2024-01-21T17:20:02.734Z,102124.56
2024-01-21T17:22:30.716Z,102125.42
2024-01-21T17:24:59.619Z,102130.27
2024-01-21T17:27:29.886Z,102128.58
2024-01-21T17:29:57.924Z,102128.07
2024-01-21T17:32:25.956Z,102125.31
2024-01-21T17:34:54.158Z,102131.99
2024-01-21T17:37:22.090Z,102134.38
2024-01-21T17:39:50.461Z,102137.96
2024-01-21T17:42:18.473Z,102139.81
2024-01-21T17:44:47.021Z,102141.89
2024-01-21T17:47:15.537Z,102135.39
2024-01-21T17:49:43.541Z,102134.16
2024-01-21T17:52:11.789Z,102134.47
2024-01-21T17:54:41.353Z,102136.16
2024-01-21T17:57:09.352Z,102139.38
2024-01-21T17:59:37.436Z,102142.06
2024-01-21T18:02:06.434Z,102142.56
2024-01-21T18:04:34.341Z,102145.27
2024-01-21T18:07:02.648Z,102142.71
2024-01-21T18:09:30.670Z,102140.98
2024-01-21T18:11:59.310Z,102145.58
2024-01-21T18:14:27.481Z,102142.33
2024-01-21T18:16:55.554Z,102141.81
2024-01-21T18:19:23.491Z,102144.38
2024-01-21T18:21:51.521Z,102148.06
2024-01-21T18:24:19.528Z,102150.05
2024-01-21T18:26:47.641Z,102151.11
2024-01-21T18:29:25.460Z,102147.03
2024-01-21T18:32:05.048Z,102150.04
2024-01-21T18:34:33.949Z,102156.48
2024-01-21T18:37:04.280Z,102159.20
2024-01-21T18:39:33.968Z,102159.65
2024-01-21T18:42:02.264Z,102163.73
2024-01-21T18:44:33.035Z,102166.14
2024-01-21T18:47:01.255Z,102170.27
2024-01-21T18:49:31.346Z,102176.77
2024-01-21T18:52:07.461Z,102177.43
2024-01-21T18:54:36.724Z,102177.73
2024-01-21T18:57:11.765Z,102173.38
2024-01-21T18:59:43.022Z,102170.92
2024-01-21T19:02:11.573Z,102165.06
2024-01-21T19:04:44.903Z,102156.86
2024-01-21T19:07:17.811Z,102151.17
2024-01-21T19:09:46.499Z,102149.60
2024-01-21T19:12:20.740Z,102150.06
2024-01-21T19:14:49.055Z,102155.83
2024-01-21T19:17:20.546Z,102154.32
2024-01-21T19:19:50.833Z,102164.80
2024-01-21T19:22:19.227Z,102171.44
2024-01-21T19:24:48.048Z,102174.95
2024-01-21T19:27:18.087Z,102175.90
2024-01-21T19:29:46.317Z,102175.18
2024-01-21T19:32:14.331Z,102179.52
2024-01-21T19:34:44.875Z,102176.59
2024-01-21T19:37:13.671Z,102173.91
2024-01-21T19:39:41.864Z,102173.96
2024-01-21T19:42:10.062Z,102175.23
2024-01-21T19:44:38.241Z,102177.79
2024-01-21T19:47:06.649Z,102187.69
2024-01-21T19:49:34.814Z,102188.98
2024-01-21T19:52:03.541Z,102187.36
2024-01-21T19:54:36.166Z,102181.33
2024-01-21T19:57:04.366Z,102177.84
2024-01-21T19:59:34.545Z,102181.39
2024-01-21T20:02:02.442Z,102186.70
2024-01-21T20:04:30.423Z,102189.00
2024-01-21T20:07:02.080Z,102192.77
2024-01-21T20:09:30.040Z,102194.05
2024-01-21T20:11:58.048Z,102190.11
2024-01-21T20:14:25.996Z,102193.78
2024-01-21T20:16:54.063Z,102197.36
2024-01-21T20:19:22.482Z,102199.05
2024-01-21T20:21:50.479Z,102195.35
2024-01-21T20:24:20.449Z,102191.71
2024-01-21T20:26:48.508Z,102187.17
2024-01-21T20:29:16.689Z,102186.61
2024-01-21T20:31:44.724Z,102186.42
2024-01-21T20:34:12.959Z,102182.84
2024-01-21T20:36:43.292Z,102182.27
2024-01-21T20:39:11.716Z,102192.46
2024-01-21T20:41:39.807Z,102196.73
2024-01-21T20:44:08.223Z,102193.64
2024-01-21T20:46:36.604Z,102192.81
2024-01-21T20:49:04.834Z,102188.78
2024-01-21T20:51:32.929Z,102187.46
2024-01-21T20:54:00.895Z,102187.54
2024-01-21T20:56:29.055Z,102186.13
2024-01-21T20:59:00.119Z,102181.33
2024-01-21T21:01:30.957Z,102184.05
2024-01-21T21:03:59.152Z,102181.95
2024-01-21T21:06:27.035Z,102176.31
2024-01-21T21:08:55.147Z,102178.84
2024-01-21T21:11:24.342Z,102172.92
2024-01-21T21:13:55.534Z,102171.88
2024-01-21T21:16:23.566Z,102175.44
2024-01-21T21:18:52.158Z,102175.10
2024-01-21T21:21:20.900Z,102179.35
2024-01-21T21:24:05.192Z,102179.13
2024-01-21T21:26:33.298Z,102182.39
2024-01-21T21:29:01.132Z,102186.08
2024-01-21T21:31:29.097Z,102184.22
2024-01-21T21:33:57.440Z,102183.31
2024-01-21T21:36:25.632Z,102185.06
2024-01-21T21:38:53.478Z,102181.05
2024-01-21T21:41:22.311Z,102176.59
2024-01-21T21:43:50.748Z,102177.23
2024-01-21T21:46:18.867Z,102176.27
2024-01-21T21:48:47.317Z,102169.69
2024-01-21T21:51:16.777Z,102167.44
2024-01-21T21:53:44.866Z,102164.30
2024-01-21T21:56:14.979Z,102164.80
2024-01-21T21:58:43.031Z,102160.44
2024-01-21T22:01:11.268Z,102153.27
2024-01-21T22:03:40.642Z,102149.60
2024-01-21T22:06:09.225Z,102152.30
2024-01-21T22:08:37.455Z,102151.64
2024-01-21T22:11:06.218Z,102154.79
2024-01-21T22:13:35.313Z,102150.51
2024-01-21T22:16:03.822Z,102151.65
2024-01-21T22:18:37.108Z,102157.63
2024-01-21T22:21:06.483Z,102157.20
2024-01-21T22:23:34.602Z,102159.94
2024-01-21T22:26:03.021Z,102160.50
2024-01-21T22:28:30.864Z,102159.31
2024-01-21T22:30:58.758Z,102157.23
2024-01-21T22:33:26.808Z,102155.85
2024-01-21T22:35:55.038Z,102154.77
2024-01-21T22:38:22.956Z,102155.39
2024-01-21T22:40:53.012Z,102155.29
2024-01-21T22:43:21.976Z,102154.53
2024-01-21T22:45:50.448Z,102147.29
2024-01-21T22:48:18.442Z,102146.20
2024-01-21T22:50:46.746Z,102145.08
2024-01-21T22:53:16.611Z,102142.44
2024-01-21T22:55:44.885Z,102140.02
2024-01-21T22:58:13.489Z,102137.86
2024-01-21T23:00:41.966Z,102138.38
2024-01-21T23:03:10.130Z,102139.78
2024-01-21T23:05:38.842Z,102136.41
2024-01-21T23:08:07.105Z,102138.59
2024-01-21T23:10:35.199Z,102146.81
2024-01-21T23:13:03.432Z,102156.15
2024-01-21T23:15:31.517Z,102159.45
2024-01-21T23:17:59.513Z,102158.98
2024-01-21T23:20:27.462Z,102158.39
2024-01-21T23:22:55.334Z,102158.86
2024-01-21T23:25:23.536Z,102158.58
2024-01-21T23:27:51.497Z,102164.26
2024-01-21T23:30:19.784Z,102164.05
2024-01-21T23:32:47.822Z,102163.35
2024-01-21T23:35:15.869Z,102160.77
2024-01-21T23:37:43.785Z,102161.92
2024-01-21T23:40:12.332Z,102159.70
2024-01-21T23:42:40.620Z,102157.14
2024-01-21T23:45:09.330Z,102154.96
2024-01-21T23:47:37.945Z,102155.45
2024-01-21T23:50:08.883Z,102155.98
2024-01-21T23:52:36.909Z,102159.19
2024-01-21T23:55:05.305Z,102156.73
2024-01-21T23:57:33.632Z,102149.98
